createdAt,value
2022-11-05T00:05:11.990Z,100.00
2022-11-05T00:10:21.988Z,100.00
2022-11-05T00:15:41.769Z,100.00
2022-11-05T00:20:43.258Z,100.00
2022-11-05T00:25:53.958Z,100.00
2022-11-05T00:31:01.160Z,100.00
2022-11-05T00:36:03.635Z,100.00
2022-11-05T00:41:05.307Z,100.00
2022-11-05T00:46:06.829Z,100.00
2022-11-05T00:51:08.469Z,100.00
2022-11-05T00:56:10.092Z,100.00
2022-11-05T01:01:12.005Z,100.00
2022-11-05T01:06:16.032Z,100.00
2022-11-05T01:11:35.241Z,100.00
2022-11-05T01:16:38.349Z,100.00
2022-11-05T01:21:39.874Z,100.00
2022-11-05T01:26:41.355Z,100.00
2022-11-05T01:31:42.838Z,100.00
2022-11-05T01:36:44.474Z,100.00
2022-11-05T01:41:46.762Z,100.00
2022-11-05T01:46:48.293Z,100.00
2022-11-05T01:51:51.364Z,100.00
2022-11-05T01:56:59.916Z,100.00
2022-11-05T02:02:03.453Z,100.00
2022-11-05T02:07:07.246Z,100.00
2022-11-05T02:12:10.644Z,100.00
2022-11-05T02:17:36.526Z,100.00
2022-11-05T02:22:53.199Z,100.00
2022-11-05T02:28:05.771Z,100.00
2022-11-05T02:33:36.084Z,100.00
2022-11-05T02:38:46.050Z,100.00
2022-11-05T02:44:02.710Z,100.00
2022-11-05T02:49:17.226Z,100.00
2022-11-05T02:54:26.914Z,100.00
2022-11-05T02:59:28.637Z,100.00
2022-11-05T03:04:32.142Z,100.00
2022-11-05T03:09:51.836Z,100.00
2022-11-05T03:14:59.424Z,100.00
2022-11-05T03:20:40.004Z,100.00
2022-11-05T03:25:47.702Z,100.00
2022-11-05T03:30:52.409Z,100.00
2022-11-05T03:36:00.458Z,100.00
2022-11-05T03:41:07.453Z,100.00
2022-11-05T03:46:31.951Z,100.00
2022-11-05T03:51:43.113Z,100.00
2022-11-05T03:57:05.610Z,100.00
2022-11-05T04:02:07.330Z,100.00
2022-11-05T04:07:29.047Z,100.00
2022-11-05T04:12:49.133Z,100.00
2022-11-05T04:17:50.715Z,100.00
2022-11-05T04:23:21.003Z,100.00
2022-11-05T04:28:42.472Z,100.00
2022-11-05T04:33:43.957Z,100.00
2022-11-05T04:38:45.457Z,100.00
2022-11-05T04:43:46.927Z,100.00
2022-11-05T04:48:48.505Z,100.00
2022-11-05T04:53:49.963Z,100.00
2022-11-05T04:58:51.900Z,100.00
2022-11-05T05:03:54.552Z,100.00
2022-11-05T05:08:55.994Z,100.00
2022-11-05T05:13:57.693Z,100.00
2022-11-05T05:18:59.154Z,100.00
2022-11-05T05:24:00.838Z,100.00
2022-11-05T05:29:03.584Z,100.00
2022-11-05T05:34:06.583Z,100.00
2022-11-05T05:39:11.087Z,100.00
2022-11-05T05:44:12.735Z,100.00
2022-11-05T05:49:14.422Z,100.00
2022-11-05T05:54:16.326Z,100.00
2022-11-05T05:59:17.874Z,100.00
2022-11-05T06:04:19.404Z,100.00
2022-11-05T06:09:20.906Z,100.00
2022-11-05T06:14:22.387Z,100.00
2022-11-05T06:19:23.938Z,100.00
2022-11-05T06:24:25.452Z,100.00
2022-11-05T06:29:26.887Z,100.00
2022-11-05T06:34:28.413Z,100.00
2022-11-05T06:39:29.852Z,100.00
2022-11-05T06:44:31.350Z,100.00
2022-11-05T06:49:32.831Z,100.00
2022-11-05T06:54:34.312Z,100.00
2022-11-05T06:59:37.048Z,100.00
2022-11-05T07:04:38.543Z,100.00
2022-11-05T07:09:43.072Z,100.00
2022-11-05T07:14:44.542Z,100.00
2022-11-05T07:19:45.953Z,100.00
2022-11-05T07:24:48.084Z,100.00
2022-11-05T07:29:49.600Z,100.00
2022-11-05T07:34:51.119Z,100.00
2022-11-05T07:39:52.584Z,100.00
2022-11-05T07:44:54.051Z,100.00
2022-11-05T07:49:55.535Z,100.00
2022-11-05T07:54:56.994Z,100.00
2022-11-05T07:59:58.506Z,100.00
2022-11-05T08:04:59.979Z,100.00
2022-11-05T08:10:03.596Z,100.00
2022-11-05T08:15:05.579Z,100.00
2022-11-05T08:20:07.415Z,100.00
2022-11-05T08:25:09.208Z,100.00
2022-11-05T08:30:11.092Z,100.00
2022-11-05T08:35:12.559Z,100.00
2022-11-05T08:40:14.205Z,100.00
2022-11-05T08:45:15.748Z,100.00
2022-11-05T08:50:17.568Z,100.00
2022-11-05T08:55:19.175Z,100.00
2022-11-05T09:00:20.729Z,100.00
2022-11-05T09:05:22.285Z,100.00
2022-11-05T09:10:24.272Z,100.00
2022-11-05T09:15:25.795Z,100.00
2022-11-05T09:20:27.453Z,100.00
2022-11-05T09:25:29.082Z,99.38
2022-11-05T09:30:30.580Z,98.56
2022-11-05T09:35:32.119Z,95.66
2022-11-05T09:40:44.149Z,94.11
2022-11-05T09:45:48.539Z,93.82
2022-11-05T09:50:53.281Z,92.69
2022-11-05T09:55:57.443Z,93.04
2022-11-05T10:00:59.248Z,93.20
2022-11-05T10:06:09.252Z,92.69
2022-11-05T10:11:18.313Z,92.43
2022-11-05T10:16:39.623Z,91.61
2022-11-05T10:27:04.335Z,89.95
2022-11-05T10:32:07.286Z,89.40
2022-11-05T10:37:10.186Z,88.23
2022-11-05T10:42:38.386Z,86.56
2022-11-05T10:48:01.011Z,87.41
2022-11-05T10:53:15.162Z,89.33
2022-11-05T10:58:16.585Z,87.93
2022-11-05T11:03:36.157Z,83.24
2022-11-05T11:08:38.147Z,83.59
2022-11-05T11:14:04.427Z,79.29
2022-11-05T11:19:31.010Z,73.87
2022-11-05T11:24:45.188Z,75.39
2022-11-05T11:29:51.135Z,77.50
2022-11-05T11:34:58.492Z,77.45
2022-11-05T11:40:29.359Z,77.13
2022-11-05T11:45:45.542Z,76.16
2022-11-05T11:50:48.341Z,76.42
2022-11-05T11:56:18.020Z,75.06
2022-11-05T12:01:48.709Z,75.21
2022-11-05T12:07:26.271Z,75.88
2022-11-05T12:13:01.933Z,77.07
2022-11-05T12:18:19.389Z,78.83
2022-11-05T12:23:35.920Z,77.25
2022-11-05T12:29:20.120Z,75.95
2022-11-05T12:35:05.395Z,77.31
2022-11-05T12:40:12.945Z,77.45
2022-11-05T12:45:43.220Z,78.55
2022-11-05T12:51:03.702Z,79.93
2022-11-05T12:56:21.415Z,80.60
2022-11-05T13:01:33.451Z,80.06
2022-11-05T13:06:40.974Z,80.68
2022-11-05T13:11:45.992Z,79.85
2022-11-05T13:16:59.875Z,80.51
2022-11-05T13:22:12.373Z,79.99
2022-11-05T13:27:36.937Z,79.88
2022-11-05T13:32:47.045Z,80.13
2022-11-05T13:38:17.620Z,79.38
2022-11-05T13:43:40.126Z,78.07
2022-11-05T13:48:50.798Z,77.88
2022-11-05T13:54:14.123Z,75.57
2022-11-05T13:59:36.964Z,76.53
2022-11-05T14:04:47.339Z,75.90
2022-11-05T14:09:55.826Z,75.91
2022-11-05T14:15:03.962Z,75.42
2022-11-05T14:20:05.432Z,75.86
2022-11-05T14:25:19.210Z,75.28
2022-11-05T14:30:48.944Z,75.54
2022-11-05T14:35:51.613Z,76.74
2022-11-05T14:41:02.457Z,76.07
2022-11-05T14:46:06.428Z,76.76
2022-11-05T14:51:44.215Z,77.12
2022-11-05T14:56:56.507Z,76.89
2022-11-05T15:02:15.262Z,77.19
2022-11-05T15:07:22.533Z,77.93
2022-11-05T15:12:37.333Z,78.17
2022-11-05T15:17:47.993Z,78.98
2022-11-05T15:22:51.809Z,78.25
2022-11-05T15:28:02.969Z,78.96
2022-11-05T15:33:31.795Z,79.13
2022-11-05T15:38:35.179Z,80.63
2022-11-05T15:43:47.732Z,81.61
2022-11-05T15:49:04.978Z,82.58
2022-11-05T15:54:29.014Z,82.64
2022-11-05T15:59:29.676Z,83.63
2022-11-05T16:04:34.571Z,84.21
2022-11-05T16:09:40.055Z,84.48
2022-11-05T16:14:42.329Z,84.38
2022-11-05T16:19:45.459Z,85.10
2022-11-05T16:24:47.349Z,86.51
2022-11-05T16:29:48.762Z,86.27
2022-11-05T16:34:59.208Z,87.75
2022-11-05T16:40:01.912Z,88.10
2022-11-05T16:45:04.315Z,89.62
2022-11-05T16:50:17.835Z,91.11
2022-11-05T16:55:19.972Z,91.50
2022-11-05T17:00:23.016Z,92.24
2022-11-05T17:05:29.723Z,92.52
2022-11-05T17:10:31.434Z,92.63
2022-11-05T17:15:35.684Z,93.55
2022-11-05T17:20:41.640Z,94.21
2022-11-05T17:25:45.701Z,95.23
2022-11-05T17:30:52.942Z,95.28
2022-11-05T17:35:55.323Z,96.26
2022-11-05T17:40:56.794Z,96.16
2022-11-05T17:46:04.122Z,96.46
2022-11-05T17:51:10.101Z,96.48
2022-11-05T17:56:13.476Z,98.10
2022-11-05T18:01:31.774Z,98.59
2022-11-05T18:06:33.344Z,98.08
2022-11-05T18:11:36.201Z,98.87
2022-11-05T18:16:38.095Z,99.64
2022-11-05T18:21:39.568Z,99.66
2022-11-05T18:26:42.087Z,99.27
2022-11-05T18:31:43.734Z,100.00
2022-11-05T18:36:45.607Z,100.00
2022-11-05T18:41:47.460Z,100.00
2022-11-05T18:46:58.170Z,100.00
2022-11-05T18:52:00.080Z,100.00
2022-11-05T18:57:01.632Z,100.00
2022-11-05T19:02:03.413Z,100.00
2022-11-05T19:07:06.394Z,100.00
2022-11-05T19:12:08.115Z,99.82
2022-11-05T19:17:09.648Z,100.00
2022-11-05T19:22:11.453Z,99.91
2022-11-05T19:27:12.902Z,99.39
2022-11-05T19:32:14.619Z,98.57
2022-11-05T19:37:16.078Z,98.77
2022-11-05T19:42:17.530Z,98.42
2022-11-05T19:47:18.953Z,99.86
2022-11-05T19:52:20.527Z,99.75
2022-11-05T19:57:22.068Z,99.38
2022-11-05T20:02:23.614Z,100.00
2022-11-05T20:07:25.214Z,100.00
2022-11-05T20:12:26.700Z,100.00
2022-11-05T20:17:28.264Z,100.00
2022-11-05T20:22:29.780Z,100.00
2022-11-05T20:27:31.224Z,100.00
2022-11-05T20:32:32.728Z,100.00
2022-11-05T20:37:34.495Z,100.00
2022-11-05T20:42:36.958Z,100.00
2022-11-05T20:47:38.587Z,100.00
2022-11-05T20:52:40.424Z,100.00
2022-11-05T20:57:41.958Z,100.00
2022-11-05T21:02:43.577Z,100.00
2022-11-05T21:07:45.228Z,100.00
2022-11-05T21:12:47.250Z,100.00
2022-11-05T21:17:50.321Z,100.00
2022-11-05T21:22:51.755Z,100.00
2022-11-05T21:27:53.251Z,100.00
2022-11-05T21:32:54.685Z,100.00
2022-11-05T21:37:56.283Z,100.00
2022-11-05T21:42:57.807Z,100.00
2022-11-05T21:47:59.521Z,100.00
2022-11-05T21:53:19.283Z,100.00
2022-11-05T21:58:39.849Z,100.00
2022-11-05T22:03:41.350Z,100.00
2022-11-05T22:08:42.836Z,100.00
2022-11-05T22:13:44.343Z,100.00
2022-11-05T22:18:45.834Z,100.00
2022-11-05T22:23:47.312Z,100.00
2022-11-05T22:28:48.833Z,100.00
2022-11-05T22:33:50.508Z,100.00
2022-11-05T22:38:52.091Z,100.00
2022-11-05T22:43:53.601Z,100.00
2022-11-05T22:48:58.682Z,100.00
2022-11-05T22:54:00.750Z,100.00
2022-11-05T22:59:03.340Z,100.00
2022-11-05T23:04:04.913Z,100.00
2022-11-05T23:09:31.465Z,100.00
2022-11-05T23:14:33.245Z,100.00
2022-11-05T23:19:53.152Z,100.00
2022-11-05T23:24:54.667Z,100.00
2022-11-05T23:30:00.441Z,100.00
2022-11-05T23:35:02.020Z,100.00
2022-11-05T23:40:06.003Z,100.00
2022-11-05T23:45:26.991Z,100.00
2022-11-05T23:50:33.103Z,100.00
2022-11-05T23:55:38.012Z,100.00
